Active alerts


No alerts


weather webcam more information weather webcam


Thunder radar more information blitzortung!


Rain radar more information rain snow radar


Visit our other weather sites:

Template documentation
and downloads

And another site


Nearby METAR Reports

   
EBBR - Brussels International Airport, Belgium
Distance from station: W 9 mi
Updated: Jul 6 2020 4:20 am
Nearby Showers, Partly Cloudy  
Nearby Showers, Partly Cloudy  
   Wind: West 17.3 mph
Wind: West 17.3 mph
Temperature: 64.4°F
Dew Point: 46.4°F
Humidity: 52%
Barometer: 30.03 inHg
Clouds: Partly Cloudy
Visibility: More than 6 mi
Cloud details: Partly Cloudy 3200 ft
EBBR 060920Z 27015KT 9999 VCSH SCT032 18/08 Q1017 TEMPO 27015G25KT
EBBE - Beauvechain (Bevekom), Belgium
Distance from station: SSE 10 mi
Updated: Jul 6 2020 4:25 am
Partly Cloudy  
Partly Cloudy  
   Wind: West 16.1 mph
Wind: West 16.1 mph
Temperature: 60.8°F
Dew Point: 46.4°F
Humidity: 59%
Barometer: 30.03 inHg
Clouds: Partly Cloudy
Visibility: More than 6 mi
Cloud details: Few Clouds 2100 ft,
Partly Cloudy 3200 ft
EBBE 060925Z 26014KT 9999 FEW021 SCT032 16/08 Q1017 BLU BLU TEMPO WHT
EBDT - Schaffen, Belgium
Distance from station: ENE 18 mi
Updated: Jul 6 2020 4:25 am
Mostly Cloudy  
Mostly Cloudy  
   Wind: West 13.8 mph
Wind: West 13.8 mph
Temperature: 62.6°F
Dew Point: 48.2°F
Humidity: 59%
Barometer: 30 inHg
Clouds: Mostly Cloudy
Visibility: More than 6 mi
Cloud details: Few Clouds 3300 ft,
Partly Cloudy 4100 ft,
Mostly Cloudy 5500 ft
EBDT 060925Z AUTO 27012KT 9999 FEW033/// SCT041/// BKN055/// 17/09 Q1016 BLU
EBAW - Antwerp/Deurne, Belgium
Distance from station: NNW 23 mi
Updated: Jul 6 2020 4:20 am
Light Showers, Rain, Partly Cloudy  
Light Showers, Rain, Partly Cloudy  
   Wind: West 18.4 mph<br />Gust to 18.4 mph
Wind: West 18.4 mph
Gust to 18.4 mph
Temperature: 57.2°F
Dew Point: 50°F
Humidity: 77%
Barometer: 30.03 inHg
Clouds: Partly Cloudy
Visibility: More than 6 mi
Cloud details: Partly Cloudy 3400 ft
EBAW 060920Z 28016G28KT 230V320 9999 -SHRA SCT034 14/10 Q1017 TEMPO 4500 SHRA
EBCI - Charleroi/Gosselies, Belgium
Distance from station: SSW 32 mi
Updated: Jul 6 2020 4:20 am
Mostly Cloudy  
Mostly Cloudy  
   Wind: West 11.5 mph
Wind: West 11.5 mph
Temperature: 60.8°F
Dew Point: 44.6°F
Humidity: 55%
Barometer: 30.06 inHg
Clouds: Mostly Cloudy
Visibility: More than 6 mi
Cloud details: Mostly Cloudy 2600 ft
EBCI 060920Z 27010KT 230V300 9999 BKN026 16/07 Q1018 NOSIG
EBLG - Bierset/Liege, Belgium
Distance from station: ESE 38 mi
Updated: Jul 6 2020 4:20 am
Partly Cloudy  
Partly Cloudy  
   Wind: WSW 16.1 mph
Wind: WSW 16.1 mph
Temperature: 59°F
Dew Point: 44.6°F
Humidity: 59%
Barometer: 30.03 inHg
Clouds: Partly Cloudy
Visibility: More than 6 mi
Cloud details: Partly Cloudy 2800 ft
EBLG 060920Z 25014KT 9999 SCT028 15/07 Q1017 NOSIG

Script developed by  Saratoga-weather.org Adapted for the template by  Weerstation Leuven

You find our weather info also at:

Weather Underground

Midwestern Weather Network

Citizen Weather Observer Program (CWOP)

HAMweather, WeatherForYou, PWS Weather

Equipment we use:

Weather-station
Davis VP2

Weather-program
Cumulus

Davis VP2

Cumulus